createdAt,value
2023-05-22T00:01:01.813Z,11.57
2023-05-22T00:03:30.334Z,11.05
2023-05-22T00:05:58.877Z,12.25
2023-05-22T00:08:29.572Z,11.82
2023-05-22T00:10:57.986Z,10.85
2023-05-22T00:13:26.528Z,11.15
2023-05-22T00:15:54.596Z,11.40
2023-05-22T00:18:22.424Z,10.63
2023-05-22T00:20:50.263Z,11.40
2023-05-22T00:23:18.177Z,11.27
2023-05-22T00:25:47.329Z,13.60
2023-05-22T00:28:15.934Z,11.48
2023-05-22T00:30:45.520Z,12.63
2023-05-22T00:33:13.250Z,11.80
2023-05-22T00:35:40.964Z,10.80
2023-05-22T00:38:09.505Z,10.98
2023-05-22T00:40:37.711Z,11.90
2023-05-22T00:43:08.922Z,10.98
2023-05-22T00:45:37.510Z,11.80
2023-05-22T00:48:05.930Z,12.05
2023-05-22T00:50:33.682Z,11.68
2023-05-22T00:53:01.977Z,11.68
2023-05-22T00:55:29.728Z,10.93
2023-05-22T00:57:58.260Z,11.48
2023-05-22T01:00:27.512Z,11.00
2023-05-22T01:02:55.469Z,10.70
2023-05-22T01:05:23.342Z,10.80
2023-05-22T01:07:51.622Z,11.68
2023-05-22T01:10:19.727Z,11.43
2023-05-22T01:12:58.002Z,12.18
2023-05-22T01:15:36.215Z,11.90
2023-05-22T01:18:19.421Z,10.70
2023-05-22T01:20:53.802Z,11.30
2023-05-22T01:23:47.444Z,11.32
2023-05-22T01:26:43.740Z,11.30
2023-05-22T01:29:29.555Z,10.75
2023-05-22T01:32:02.070Z,11.23
2023-05-22T01:34:32.664Z,12.68
2023-05-22T01:37:02.593Z,12.43
2023-05-22T01:39:31.501Z,12.00
2023-05-22T01:41:59.516Z,11.98
2023-05-22T01:44:27.721Z,11.48
2023-05-22T01:47:00.388Z,11.35
2023-05-22T01:49:28.464Z,12.38
2023-05-22T01:52:04.620Z,11.18
2023-05-22T01:54:39.697Z,11.70
2023-05-22T01:57:13.805Z,13.02
2023-05-22T01:59:47.332Z,12.18
2023-05-22T02:02:20.333Z,11.68
2023-05-22T02:04:53.519Z,12.57
2023-05-22T02:07:24.797Z,11.63
2023-05-22T02:09:56.419Z,10.68
2023-05-22T02:12:24.859Z,12.40
2023-05-22T02:14:53.079Z,11.40
2023-05-22T02:17:23.392Z,11.93
2023-05-22T02:19:52.036Z,11.50
2023-05-22T02:22:19.861Z,10.63
2023-05-22T02:24:50.112Z,11.07
2023-05-22T02:27:18.267Z,11.40
2023-05-22T02:29:46.409Z,13.10
2023-05-22T02:32:14.104Z,12.13
2023-05-22T02:34:43.954Z,11.00
2023-05-22T02:37:13.298Z,12.10
2023-05-22T02:39:41.603Z,11.43
2023-05-22T02:42:09.775Z,11.45
2023-05-22T02:44:37.467Z,11.70
2023-05-22T02:47:06.137Z,11.60
2023-05-22T02:49:33.871Z,10.38
2023-05-22T02:52:03.022Z,11.43
2023-05-22T02:54:31.664Z,11.90
2023-05-22T02:57:00.488Z,11.95
2023-05-22T02:59:28.284Z,11.10
2023-05-22T03:01:56.325Z,10.93
2023-05-22T03:04:24.978Z,12.43
2023-05-22T03:06:53.325Z,11.48
2023-05-22T03:09:22.472Z,11.52
2023-05-22T03:11:50.210Z,11.95
2023-05-22T03:14:17.907Z,11.40
2023-05-22T03:16:46.006Z,12.57
2023-05-22T03:19:15.775Z,11.95
2023-05-22T03:21:44.882Z,12.50
2023-05-22T03:24:15.298Z,13.05
2023-05-22T03:26:44.613Z,11.38
2023-05-22T03:29:19.501Z,12.00
2023-05-22T03:31:47.976Z,13.10
2023-05-22T03:34:16.726Z,13.50
2023-05-22T03:36:47.051Z,12.43
2023-05-22T03:39:18.371Z,11.38
2023-05-22T03:41:56.583Z,11.75
2023-05-22T03:44:25.745Z,11.30
2023-05-22T03:46:54.883Z,11.27
2023-05-22T03:49:23.296Z,12.07
2023-05-22T03:51:51.076Z,12.45
2023-05-22T03:54:19.452Z,12.45
2023-05-22T03:56:47.186Z,11.63
2023-05-22T03:59:16.963Z,12.10
2023-05-22T04:01:48.197Z,13.40
2023-05-22T04:04:16.498Z,11.32
2023-05-22T04:06:44.821Z,12.50
2023-05-22T04:09:17.952Z,11.82
2023-05-22T04:11:46.355Z,13.25
2023-05-22T04:14:15.632Z,11.88
2023-05-22T04:16:43.352Z,11.45
2023-05-22T04:19:13.949Z,13.10
2023-05-22T04:21:44.563Z,12.30
2023-05-22T04:24:12.439Z,10.80
2023-05-22T04:26:42.564Z,11.70
2023-05-22T04:29:14.356Z,11.30
2023-05-22T04:31:44.368Z,11.63
2023-05-22T04:34:16.448Z,11.93
2023-05-22T04:36:46.388Z,11.20
2023-05-22T04:39:16.169Z,11.82
2023-05-22T04:41:46.108Z,12.23
2023-05-22T04:44:14.945Z,12.48
2023-05-22T04:46:45.240Z,12.98
2023-05-22T04:49:13.416Z,11.80
2023-05-22T04:51:42.327Z,11.80
2023-05-22T04:54:10.889Z,11.32
2023-05-22T04:56:39.384Z,11.57
2023-05-22T04:59:10.834Z,10.57
2023-05-22T05:01:39.780Z,10.25
2023-05-22T05:04:09.144Z,11.10
2023-05-22T05:06:37.666Z,11.05
2023-05-22T05:09:11.116Z,11.50
2023-05-22T05:11:38.893Z,11.15
2023-05-22T05:14:06.892Z,10.20
2023-05-22T05:16:34.656Z,10.65
2023-05-22T05:19:03.800Z,9.98
2023-05-22T05:21:32.867Z,11.27
2023-05-22T05:24:02.101Z,9.75
2023-05-22T05:26:29.882Z,10.57
2023-05-22T05:28:58.929Z,9.40
2023-05-22T05:31:34.146Z,9.90
2023-05-22T05:34:22.066Z,9.67
2023-05-22T05:36:57.117Z,10.60
2023-05-22T05:39:24.954Z,10.10
2023-05-22T05:41:53.116Z,9.87
2023-05-22T05:44:21.351Z,9.13
2023-05-22T05:46:49.945Z,10.10
2023-05-22T05:49:20.794Z,10.17
2023-05-22T05:51:52.020Z,9.90
2023-05-22T05:54:26.288Z,9.30
2023-05-22T05:56:59.158Z,10.70
2023-05-22T05:59:28.175Z,9.80
2023-05-22T06:02:16.204Z,9.50
2023-05-22T06:04:49.771Z,9.20
2023-05-22T06:07:19.355Z,9.13
2023-05-22T06:09:53.725Z,9.30
2023-05-22T06:12:34.923Z,9.40
2023-05-22T06:15:05.604Z,10.60
2023-05-22T06:17:36.194Z,9.33
2023-05-22T06:20:05.256Z,9.20
2023-05-22T06:22:36.740Z,9.77
2023-05-22T06:25:11.105Z,9.03
2023-05-22T06:27:40.003Z,9.47
2023-05-22T06:30:08.810Z,9.30
2023-05-22T06:32:40.126Z,9.60
2023-05-22T06:35:11.461Z,8.67
2023-05-22T06:37:42.848Z,9.70
2023-05-22T06:40:16.027Z,9.43
2023-05-22T06:42:50.522Z,9.73
2023-05-22T06:45:38.470Z,9.43
2023-05-22T06:48:27.398Z,8.93
2023-05-22T06:51:02.389Z,9.70
2023-05-22T06:53:31.556Z,9.00
2023-05-22T06:56:02.199Z,10.13
2023-05-22T06:58:46.382Z,9.27
2023-05-22T07:01:16.187Z,9.30
2023-05-22T07:03:56.797Z,8.47
2023-05-22T07:06:48.426Z,8.60
2023-05-22T07:09:19.062Z,9.27
2023-05-22T07:11:50.130Z,8.60
2023-05-22T07:14:19.644Z,8.90
2023-05-22T07:16:49.476Z,9.43
2023-05-22T07:19:28.698Z,8.70
2023-05-22T07:22:01.824Z,7.87
2023-05-22T07:24:33.739Z,9.50
2023-05-22T07:27:04.256Z,6.57
2023-05-22T07:29:32.754Z,7.40
2023-05-22T07:32:02.292Z,7.37
2023-05-22T07:34:34.110Z,6.90
2023-05-22T07:37:12.346Z,7.80
2023-05-22T07:39:43.748Z,7.33
2023-05-22T07:42:14.828Z,7.63
2023-05-22T07:44:49.449Z,7.70
2023-05-22T07:47:19.152Z,6.90
2023-05-22T07:49:47.065Z,7.60
2023-05-22T07:52:15.805Z,6.30
2023-05-22T07:54:45.235Z,6.17
2023-05-22T07:57:16.415Z,6.67
2023-05-22T07:59:45.273Z,5.90
2023-05-22T08:02:14.087Z,6.50
2023-05-22T08:04:42.316Z,6.13
2023-05-22T08:07:10.221Z,6.20
2023-05-22T08:09:38.265Z,6.30
2023-05-22T08:12:07.651Z,6.93
2023-05-22T08:14:37.066Z,6.47
2023-05-22T08:17:05.010Z,6.10
2023-05-22T08:19:33.058Z,6.30
2023-05-22T08:22:00.855Z,6.50
2023-05-22T08:24:30.454Z,6.70
2023-05-22T08:27:02.157Z,6.80
2023-05-22T08:29:34.637Z,7.60
2023-05-22T08:32:03.710Z,7.37
2023-05-22T08:34:32.809Z,6.27
2023-05-22T08:37:02.410Z,6.30
2023-05-22T08:39:32.364Z,6.27
2023-05-22T08:42:05.093Z,6.37
2023-05-22T08:44:38.582Z,5.90
2023-05-22T08:47:11.226Z,5.00
2023-05-22T08:49:41.750Z,5.83
2023-05-22T08:52:14.162Z,5.00
2023-05-22T08:54:51.503Z,6.27
2023-05-22T08:57:20.724Z,5.20
2023-05-22T08:59:55.344Z,6.40
2023-05-22T09:02:29.210Z,5.80
2023-05-22T09:04:58.152Z,5.27
2023-05-22T09:07:27.707Z,5.40
2023-05-22T09:09:59.260Z,5.00
2023-05-22T09:12:30.503Z,5.47
2023-05-22T09:15:02.274Z,4.90
2023-05-22T09:17:35.030Z,4.80
2023-05-22T09:20:06.552Z,5.30
2023-05-22T09:22:37.763Z,5.27
2023-05-22T09:25:06.809Z,5.40
2023-05-22T09:27:34.892Z,6.10
2023-05-22T09:30:02.616Z,5.43
2023-05-22T09:32:32.578Z,5.27
2023-05-22T09:35:04.882Z,5.77
2023-05-22T09:37:35.642Z,5.60
2023-05-22T09:40:06.666Z,5.80
2023-05-22T09:42:35.331Z,6.27
2023-05-22T09:45:05.183Z,6.47
2023-05-22T09:47:35.702Z,5.80
2023-05-22T09:50:07.058Z,5.70
2023-05-22T09:52:36.222Z,6.30
2023-05-22T09:55:05.635Z,6.37
2023-05-22T09:57:37.305Z,6.80
2023-05-22T10:00:10.381Z,7.40
2023-05-22T10:02:58.512Z,6.90
2023-05-22T10:05:32.444Z,6.33
2023-05-22T10:08:06.110Z,6.40
2023-05-22T10:10:35.304Z,5.80
2023-05-22T10:13:05.432Z,6.20
2023-05-22T10:15:33.638Z,5.93
2023-05-22T10:18:02.987Z,6.03
2023-05-22T10:20:31.427Z,4.90
2023-05-22T10:22:59.735Z,6.27
2023-05-22T10:25:27.663Z,6.27
2023-05-22T10:27:56.659Z,5.97
2023-05-22T10:30:32.258Z,7.00
2023-05-22T10:33:24.604Z,5.70
2023-05-22T10:35:56.660Z,6.23
2023-05-22T10:38:47.875Z,5.70
2023-05-22T10:41:15.797Z,5.63
2023-05-22T10:43:44.072Z,5.77
2023-05-22T10:46:13.685Z,6.37
2023-05-22T10:48:46.414Z,6.77
2023-05-22T10:51:15.277Z,5.63
2023-05-22T10:53:45.095Z,6.83
2023-05-22T10:56:14.355Z,5.93
2023-05-22T10:58:45.175Z,7.37
2023-05-22T11:01:14.643Z,6.43
2023-05-22T11:03:59.381Z,6.33
2023-05-22T11:06:36.806Z,5.90
2023-05-22T11:09:30.634Z,5.97
2023-05-22T11:12:16.146Z,5.60
2023-05-22T11:14:44.504Z,6.80
2023-05-22T11:17:14.462Z,6.40
2023-05-22T11:19:47.800Z,7.07
2023-05-22T11:22:18.657Z,6.60
2023-05-22T11:24:51.044Z,5.87
2023-05-22T11:27:20.880Z,7.50
2023-05-22T11:29:49.981Z,5.70
2023-05-22T11:32:21.952Z,6.53
2023-05-22T11:34:51.196Z,5.80
2023-05-22T11:37:20.050Z,5.63
2023-05-22T11:39:52.876Z,6.20
2023-05-22T11:42:20.796Z,6.23
2023-05-22T11:44:50.989Z,6.40
2023-05-22T11:47:21.308Z,5.73
2023-05-22T11:49:49.269Z,5.53
2023-05-22T11:52:18.634Z,6.63
2023-05-22T11:54:50.458Z,6.50
2023-05-22T11:57:18.248Z,7.37
2023-05-22T11:59:47.171Z,6.63
2023-05-22T12:02:16.771Z,6.27
2023-05-22T12:04:44.982Z,6.10
2023-05-22T12:07:12.888Z,6.87
2023-05-22T12:09:43.469Z,6.63
2023-05-22T12:12:12.170Z,6.53
2023-05-22T12:14:39.983Z,6.80
2023-05-22T12:17:07.670Z,7.03
2023-05-22T12:19:35.451Z,6.17
2023-05-22T12:22:05.581Z,6.93
2023-05-22T12:24:40.648Z,6.20
2023-05-22T12:27:11.196Z,7.23
2023-05-22T12:29:39.694Z,6.67
2023-05-22T12:32:10.812Z,7.30
2023-05-22T12:34:44.689Z,7.20
2023-05-22T12:37:20.943Z,7.27
2023-05-22T12:39:57.062Z,7.07
2023-05-22T12:42:26.973Z,7.13
2023-05-22T12:44:55.899Z,7.07
2023-05-22T12:47:24.992Z,6.93
2023-05-22T12:49:53.244Z,7.47
2023-05-22T12:52:21.364Z,7.80
2023-05-22T12:54:50.398Z,7.77
2023-05-22T12:57:18.747Z,7.30
2023-05-22T12:59:47.966Z,7.57
2023-05-22T13:02:16.288Z,6.20
2023-05-22T13:04:44.012Z,6.40
2023-05-22T13:07:12.407Z,7.07
2023-05-22T13:09:41.381Z,7.83
2023-05-22T13:12:12.108Z,7.37
2023-05-22T13:14:42.307Z,7.13
2023-05-22T13:17:14.870Z,6.63
2023-05-22T13:19:45.794Z,7.00
2023-05-22T13:22:13.494Z,6.50
2023-05-22T13:24:42.472Z,7.33
2023-05-22T13:27:10.320Z,8.03
2023-05-22T13:29:38.069Z,7.47
2023-05-22T13:32:08.668Z,7.30
2023-05-22T13:34:37.771Z,7.60
2023-05-22T13:37:07.423Z,6.60
2023-05-22T13:39:35.232Z,7.57
2023-05-22T13:42:03.408Z,7.70
2023-05-22T13:44:31.201Z,7.63
2023-05-22T13:47:00.545Z,8.27
2023-05-22T13:49:28.844Z,7.70
2023-05-22T13:51:58.013Z,7.70
2023-05-22T13:54:25.776Z,8.60
2023-05-22T13:56:54.812Z,8.13
2023-05-22T13:59:22.526Z,8.10
2023-05-22T14:01:50.349Z,7.70
2023-05-22T14:04:18.183Z,8.20
2023-05-22T14:06:45.939Z,7.87
2023-05-22T14:09:15.040Z,7.30
2023-05-22T14:11:42.799Z,8.43
2023-05-22T14:14:10.567Z,7.83
2023-05-22T14:16:38.386Z,7.60
2023-05-22T14:19:06.240Z,7.40
2023-05-22T14:21:33.957Z,6.80
2023-05-22T14:24:04.286Z,7.50
2023-05-22T14:26:33.343Z,6.87
2023-05-22T14:29:01.274Z,7.70
2023-05-22T14:31:29.727Z,6.60
2023-05-22T14:33:57.592Z,6.30
2023-05-22T14:36:25.374Z,6.97
2023-05-22T14:38:57.262Z,6.50
2023-05-22T14:41:24.965Z,5.90
2023-05-22T14:43:54.028Z,6.13
2023-05-22T14:46:21.861Z,6.27
2023-05-22T14:48:49.532Z,5.70
2023-05-22T14:51:20.926Z,4.80
2023-05-22T14:53:48.700Z,4.77
2023-05-22T14:56:16.424Z,4.77
2023-05-22T14:58:44.149Z,4.87
2023-05-22T15:01:13.400Z,4.57
2023-05-22T15:03:41.224Z,5.47
2023-05-22T15:06:09.024Z,5.90
2023-05-22T15:08:37.365Z,5.43
2023-05-22T15:11:05.254Z,5.40
2023-05-22T15:13:32.923Z,5.20
2023-05-22T15:16:00.678Z,6.00
2023-05-22T15:18:29.744Z,6.27
2023-05-22T15:20:57.685Z,6.57
2023-05-22T15:23:26.433Z,6.37
2023-05-22T15:25:54.362Z,7.00
2023-05-22T15:28:22.374Z,6.00
2023-05-22T15:30:50.272Z,5.90
2023-05-22T15:33:18.011Z,5.30
2023-05-22T15:35:47.893Z,5.17
2023-05-22T15:38:16.442Z,5.50
2023-05-22T15:40:47.279Z,5.00
2023-05-22T15:43:17.002Z,4.63
2023-05-22T15:45:52.444Z,5.47
2023-05-22T15:48:21.382Z,5.13
2023-05-22T15:50:50.413Z,5.83
2023-05-22T15:53:18.190Z,6.63
2023-05-22T15:55:48.041Z,6.00
2023-05-22T15:58:15.788Z,5.43
2023-05-22T16:00:44.703Z,6.70
2023-05-22T16:03:15.060Z,8.27
2023-05-22T16:05:44.752Z,8.03
2023-05-22T16:08:16.927Z,8.00
2023-05-22T16:10:46.914Z,9.50
2023-05-22T16:13:14.825Z,7.60
2023-05-22T16:15:44.671Z,8.83
2023-05-22T16:18:12.792Z,8.40
2023-05-22T16:20:40.604Z,8.83
2023-05-22T16:23:08.414Z,8.70
2023-05-22T16:25:37.617Z,8.60
2023-05-22T16:28:06.339Z,8.33
2023-05-22T16:30:34.130Z,8.37
2023-05-22T16:33:01.876Z,7.93
2023-05-22T16:35:30.345Z,8.67
2023-05-22T16:37:58.660Z,9.13
2023-05-22T16:40:26.379Z,8.73
2023-05-22T16:42:55.708Z,8.63
2023-05-22T16:45:23.658Z,8.03
2023-05-22T16:47:55.058Z,9.60
2023-05-22T16:50:25.607Z,9.00
2023-05-22T16:52:56.304Z,9.10
2023-05-22T16:55:24.051Z,8.33
2023-05-22T16:57:51.764Z,7.60
2023-05-22T17:00:21.361Z,7.43
2023-05-22T17:02:49.286Z,7.60
2023-05-22T17:05:17.050Z,7.87
2023-05-22T17:07:44.848Z,8.90
2023-05-22T17:10:12.821Z,7.70
2023-05-22T17:12:40.551Z,8.33
2023-05-22T17:15:09.138Z,8.40
2023-05-22T17:17:38.149Z,8.73
2023-05-22T17:20:07.537Z,8.50
2023-05-22T17:22:36.473Z,7.80
2023-05-22T17:25:06.883Z,8.43
2023-05-22T17:27:37.710Z,7.40
2023-05-22T17:30:06.654Z,7.80
2023-05-22T17:32:34.635Z,7.43
2023-05-22T17:35:06.153Z,7.17
2023-05-22T17:37:33.950Z,7.40
2023-05-22T17:40:01.718Z,7.83
2023-05-22T17:42:32.316Z,7.57
2023-05-22T17:45:02.537Z,8.90
2023-05-22T17:47:31.505Z,8.80
2023-05-22T17:50:00.492Z,8.97
2023-05-22T17:52:29.768Z,8.97
2023-05-22T17:54:57.500Z,8.57
2023-05-22T17:57:25.808Z,8.53
2023-05-22T17:59:55.554Z,8.43
2023-05-22T18:02:27.504Z,8.60
2023-05-22T18:04:58.959Z,8.00
2023-05-22T18:07:26.791Z,8.30
2023-05-22T18:09:55.843Z,8.73
2023-05-22T18:12:31.806Z,8.10
2023-05-22T18:15:01.381Z,9.47
2023-05-22T18:17:32.322Z,9.33
2023-05-22T18:20:01.497Z,8.80
2023-05-22T18:22:29.390Z,10.00
2023-05-22T18:24:58.552Z,10.03
2023-05-22T18:27:28.769Z,8.40
2023-05-22T18:29:56.507Z,8.70
2023-05-22T18:32:24.591Z,9.23
2023-05-22T18:34:53.141Z,8.70
2023-05-22T18:37:20.907Z,9.20
2023-05-22T18:39:49.011Z,10.47
2023-05-22T18:42:18.120Z,9.93
2023-05-22T18:44:48.734Z,9.83
2023-05-22T18:47:17.002Z,9.10
2023-05-22T18:49:44.718Z,9.50
2023-05-22T18:52:12.661Z,9.20
2023-05-22T18:54:40.524Z,9.10
2023-05-22T18:57:08.335Z,9.23
2023-05-22T18:59:37.919Z,10.20
2023-05-22T19:02:06.111Z,10.30
2023-05-22T19:04:33.965Z,10.03
2023-05-22T19:07:01.788Z,10.40
2023-05-22T19:09:29.585Z,9.40
2023-05-22T19:11:57.421Z,9.97
2023-05-22T19:14:25.296Z,10.03
2023-05-22T19:16:54.782Z,9.20
2023-05-22T19:19:22.701Z,10.20
2023-05-22T19:21:50.537Z,10.00
2023-05-22T19:24:19.044Z,9.90
2023-05-22T19:26:48.270Z,10.50
2023-05-22T19:29:17.742Z,10.00
2023-05-22T19:31:47.217Z,9.10
2023-05-22T19:34:16.288Z,10.73
2023-05-22T19:36:44.290Z,10.53
2023-05-22T19:39:12.781Z,12.23
2023-05-22T19:41:41.673Z,11.13
2023-05-22T19:44:10.569Z,11.20
2023-05-22T19:46:40.423Z,10.80
2023-05-22T19:49:09.307Z,11.03
2023-05-22T19:51:39.547Z,10.73
2023-05-22T19:54:08.530Z,10.80
2023-05-22T19:56:36.219Z,9.60
2023-05-22T19:59:06.047Z,10.43
2023-05-22T20:01:33.818Z,10.73
2023-05-22T20:04:02.131Z,10.33
2023-05-22T20:06:35.910Z,9.90
2023-05-22T20:09:05.671Z,9.20
2023-05-22T20:11:33.392Z,8.67
2023-05-22T20:14:02.307Z,8.90
2023-05-22T20:16:30.480Z,8.03
2023-05-22T20:18:59.320Z,9.00
2023-05-22T20:21:28.931Z,9.73
2023-05-22T20:23:57.865Z,9.93
2023-05-22T20:26:27.046Z,8.70
2023-05-22T20:28:55.598Z,8.23
2023-05-22T20:31:23.494Z,9.73
2023-05-22T20:33:51.415Z,8.47
2023-05-22T20:36:19.182Z,8.23
2023-05-22T20:38:46.836Z,7.73
2023-05-22T20:41:15.317Z,8.30
2023-05-22T20:43:44.592Z,9.23
2023-05-22T20:46:12.305Z,8.90
2023-05-22T20:48:46.534Z,10.33
2023-05-22T20:51:15.535Z,9.70
2023-05-22T20:53:43.252Z,9.97
2023-05-22T20:56:11.004Z,8.93
2023-05-22T20:58:39.623Z,9.50
2023-05-22T21:01:08.738Z,8.93
2023-05-22T21:03:40.323Z,9.60
2023-05-22T21:06:08.124Z,9.20
2023-05-22T21:08:35.929Z,9.80
2023-05-22T21:11:03.622Z,9.00
2023-05-22T21:13:31.338Z,8.90
2023-05-22T21:15:59.116Z,10.27
2023-05-22T21:18:28.111Z,9.97
2023-05-22T21:20:55.893Z,9.00
2023-05-22T21:23:24.748Z,10.63
2023-05-22T21:25:52.560Z,9.87
2023-05-22T21:28:20.289Z,9.03
2023-05-22T21:30:48.138Z,9.73
2023-05-22T21:33:15.968Z,9.33
2023-05-22T21:35:45.569Z,10.13
2023-05-22T21:38:13.296Z,10.77
2023-05-22T21:40:42.509Z,10.33
2023-05-22T21:43:10.353Z,11.40
2023-05-22T21:45:38.755Z,11.10
2023-05-22T21:48:06.617Z,11.00
2023-05-22T21:50:34.430Z,10.60
2023-05-22T21:53:03.724Z,12.07
2023-05-22T21:55:32.320Z,10.80
2023-05-22T21:58:00.095Z,10.70
2023-05-22T22:00:28.322Z,11.83
2023-05-22T22:02:57.324Z,10.70
2023-05-22T22:05:27.350Z,10.75
2023-05-22T22:07:55.129Z,11.90
2023-05-22T22:10:26.181Z,10.85
2023-05-22T22:12:53.896Z,12.48
2023-05-22T22:15:22.365Z,10.70
2023-05-22T22:17:52.209Z,12.45
2023-05-22T22:20:30.379Z,10.80
2023-05-22T22:23:07.781Z,11.88
2023-05-22T22:25:38.801Z,11.38
2023-05-22T22:28:07.026Z,11.93
2023-05-22T22:30:34.894Z,11.80
2023-05-22T22:33:02.755Z,13.43
2023-05-22T22:35:30.592Z,11.60
2023-05-22T22:37:58.377Z,12.10
2023-05-22T22:40:26.935Z,12.75
2023-05-22T22:42:56.148Z,13.02
2023-05-22T22:45:23.861Z,11.82
2023-05-22T22:47:52.939Z,14.15
2023-05-22T22:50:21.251Z,13.25
2023-05-22T22:52:49.600Z,12.45
2023-05-22T22:55:21.286Z,12.25
2023-05-22T22:57:49.845Z,13.75
2023-05-22T23:00:20.025Z,13.90
2023-05-22T23:02:48.006Z,12.77
2023-05-22T23:05:19.629Z,12.63
2023-05-22T23:07:47.901Z,14.02
2023-05-22T23:10:16.179Z,13.57
2023-05-22T23:12:44.015Z,13.60
2023-05-22T23:15:13.260Z,13.25
2023-05-22T23:17:42.786Z,13.68
2023-05-22T23:20:11.379Z,13.43
2023-05-22T23:22:39.086Z,13.90
2023-05-22T23:25:07.487Z,13.13
2023-05-22T23:27:36.275Z,13.10
2023-05-22T23:30:04.304Z,13.40
2023-05-22T23:32:35.245Z,11.88
2023-05-22T23:35:05.475Z,14.27
2023-05-22T23:37:33.345Z,12.70
2023-05-22T23:40:02.538Z,13.23
2023-05-22T23:42:30.224Z,12.23
2023-05-22T23:44:57.914Z,13.03
2023-05-22T23:47:25.617Z,14.43
2023-05-22T23:49:55.097Z,12.80
2023-05-22T23:52:24.170Z,12.93
2023-05-22T23:54:51.985Z,12.40
2023-05-22T23:57:19.785Z,12.47
2023-05-22T23:59:48.218Z,13.33
